Time;durP1;ratioP1;P1;durP2;ratioP2;P2;SDS_P1;SDS_P2;PMS_P1;PMS_P2;Temp;Humidity;BMP_temperature;BMP_pressure;BME280_temperature;BME280_humidity;BME280_pressure;Samples;Min_cycle;Max_cycle;Signal;HPM_P1;HPM_P2
2022/01/14 00:00:05;;;;;;;0.30;0.30;;;-1.10;99.90;;;;;;5054056;28;20244;-74
2022/01/14 00:02:31;;;;;;;0.70;0.70;;;-1.10;99.90;;;;;;5053827;28;20683;-74
2022/01/14 00:04:56;;;;;;;0.00;0.00;;;-1.00;99.90;;;;;;5072254;28;20275;-74
2022/01/14 00:07:22;;;;;;;2.90;0.77;;;-0.90;99.90;;;;;;5071878;28;20185;-73
2022/01/14 00:09:48;;;;;;;0.57;0.57;;;-0.90;99.90;;;;;;5072988;28;20200;-73
2022/01/14 00:12:24;;;;;;;0.20;0.20;;;-0.90;99.90;;;;;;5072522;28;20216;-73
2022/01/14 00:15:12;;;;;;;0.10;0.10;;;-0.90;99.90;;;;;;5074185;28;20767;-72
2022/01/14 00:17:38;;;;;;;1.07;1.07;;;-0.90;99.90;;;;;;5054083;28;20228;-73
2022/01/14 00:20:04;;;;;;;1.70;0.90;;;-0.80;99.90;;;;;;5040345;28;20223;-73
2022/01/14 00:22:30;;;;;;;0.60;0.60;;;-0.80;99.90;;;;;;5071353;28;20219;-73
2022/01/14 00:33:08;;;;;;;0.00;0.00;;;-0.80;99.90;;;;;;5070986;28;20602;-73
2022/01/14 00:35:41;;;;;;;1.03;1.00;;;-0.70;99.90;;;;;;5075486;28;20171;-73
2022/01/14 00:38:08;;;;;;;0.87;0.80;;;-0.70;99.90;;;;;;5057364;28;20215;-74
2022/01/14 00:40:34;;;;;;;1.83;1.80;;;-0.70;99.90;;;;;;5073919;28;20594;-73
2022/01/14 00:43:00;;;;;;;0.47;0.47;;;-0.60;99.90;;;;;;5044524;28;20591;-73
2022/01/14 00:45:25;;;;;;;1.60;1.53;;;-0.60;99.90;;;;;;5061533;28;20184;-75
2022/01/14 00:47:51;;;;;;;1.00;1.00;;;-0.50;99.90;;;;;;5066935;28;20188;-74
2022/01/14 00:50:18;;;;;;;1.53;1.47;;;-0.50;99.90;;;;;;5069642;28;20188;-72
2022/01/14 00:52:44;;;;;;;3.10;2.63;;;-0.40;99.90;;;;;;5056648;28;20207;-73
2022/01/14 00:55:15;;;;;;;1.77;1.77;;;-0.30;99.90;;;;;;5061224;28;20184;-75
2022/01/14 01:00:34;;;;;;;2.77;2.67;;;-0.30;99.90;;;;;;5074404;28;20255;-73
2022/01/14 01:03:02;;;;;;;1.80;1.67;;;-0.30;99.90;;;;;;5081293;22;20224;-75
2022/01/14 01:05:29;;;;;;;1.87;1.47;;;-0.20;99.90;;;;;;5053714;28;20226;-75
2022/01/14 01:08:04;;;;;;;1.50;1.20;;;-0.30;99.90;;;;;;5053860;28;20267;-75
2022/01/14 01:10:30;;;;;;;0.70;0.70;;;-0.30;99.90;;;;;;5054022;28;20188;-74
2022/01/14 01:13:05;;;;;;;1.50;1.40;;;-0.40;99.90;;;;;;5052832;28;20216;-75
2022/01/14 01:15:30;;;;;;;0.00;0.00;;;-0.40;99.90;;;;;;5034973;28;20211;-74
2022/01/14 01:17:56;;;;;;;1.53;1.23;;;-0.40;99.90;;;;;;5033776;28;20237;-75
2022/01/14 01:20:22;;;;;;;1.87;1.87;;;-0.40;99.90;;;;;;5033820;28;20174;-75
2022/01/14 01:22:50;;;;;;;3.07;1.97;;;-0.30;99.90;;;;;;5015555;28;20202;-75
2022/01/14 01:25:20;;;;;;;0.37;0.37;;;-0.30;99.90;;;;;;5033776;28;20829;-74
2022/01/14 01:27:47;;;;;;;0.63;0.63;;;-0.30;99.90;;;;;;5015717;28;20189;-75
2022/01/14 01:30:16;;;;;;;1.80;1.47;;;-0.30;99.90;;;;;;5033382;28;20197;-74
2022/01/14 01:32:47;;;;;;;0.40;0.40;;;-0.30;99.90;;;;;;5033031;28;20745;-74
2022/01/14 01:35:14;;;;;;;1.00;1.00;;;-0.40;99.90;;;;;;5033570;28;20560;-74
2022/01/14 01:37:40;;;;;;;3.53;3.20;;;-0.40;99.90;;;;;;5033252;28;20206;-74
2022/01/14 01:40:06;;;;;;;1.67;1.60;;;-0.50;99.90;;;;;;5033380;28;20652;-74
2022/01/14 01:42:32;;;;;;;0.87;0.87;;;-0.50;99.90;;;;;;5032587;28;20205;-74
2022/01/14 01:45:01;;;;;;;0.83;0.83;;;-0.60;99.90;;;;;;5032689;28;20177;-75
2022/01/14 01:47:27;;;;;;;1.97;1.80;;;-0.60;99.90;;;;;;5033072;28;20185;-75
2022/01/14 01:49:53;;;;;;;2.03;1.93;;;-0.60;99.90;;;;;;5033190;28;20181;-74
2022/01/14 01:52:19;;;;;;;1.00;0.63;;;-0.70;99.90;;;;;;5050545;28;20545;-74
2022/01/14 01:54:45;;;;;;;1.17;1.03;;;-0.80;99.90;;;;;;5052989;28;20205;-75
2022/01/14 01:57:10;;;;;;;6.30;1.80;;;-0.90;99.90;;;;;;5044565;28;20797;-76
2022/01/14 01:59:36;;;;;;;0.87;0.87;;;-0.90;99.90;;;;;;5052660;28;20224;-76
2022/01/14 02:02:02;;;;;;;0.57;0.57;;;-0.80;99.90;;;;;;5052339;28;20228;-75
2022/01/14 02:04:29;;;;;;;1.37;1.30;;;-0.80;99.90;;;;;;5034860;28;20199;-74
2022/01/14 02:06:55;;;;;;;2.33;0.63;;;-0.80;99.90;;;;;;5052574;28;20268;-75
2022/01/14 02:09:22;;;;;;;0.33;0.33;;;-0.80;99.90;;;;;;5052602;28;20204;-75
2022/01/14 02:11:47;;;;;;;0.10;0.10;;;-0.90;99.90;;;;;;5051932;28;20300;-74
2022/01/14 02:14:28;;;;;;;2.43;2.23;;;-0.90;99.90;;;;;;5034103;28;20660;-75
2022/01/14 02:17:15;;;;;;;0.20;0.20;;;-0.90;99.90;;;;;;5034487;28;20201;-75
2022/01/14 02:22:50;;;;;;;1.27;1.27;;;-1.00;99.90;;;;;;5051505;28;20239;-75
2022/01/14 02:25:27;;;;;;;0.10;0.10;;;-1.00;99.90;;;;;;5052528;28;20208;-75
2022/01/14 02:27:54;;;;;;;1.10;1.10;;;-1.10;99.90;;;;;;5052211;28;20655;-75
2022/01/14 02:30:20;;;;;;;0.33;0.33;;;-1.10;99.90;;;;;;5052339;28;20220;-76
2022/01/14 02:32:46;;;;;;;2.93;2.73;;;-1.10;99.90;;;;;;5051741;28;20201;-76
2022/01/14 02:35:12;;;;;;;4.83;3.33;;;-1.10;99.90;;;;;;5052064;28;20191;-76
2022/01/14 02:37:37;;;;;;;1.03;1.00;;;-1.10;99.90;;;;;;5051719;28;20219;-74
2022/01/14 02:40:04;;;;;;;2.80;2.60;;;-1.10;99.90;;;;;;5052132;28;20284;-76
2022/01/14 02:42:29;;;;;;;1.20;1.20;;;-1.10;99.90;;;;;;5051720;28;20620;-75
2022/01/14 02:45:01;;;;;;;2.40;2.30;;;-1.20;99.90;;;;;;5051948;28;20252;-75
2022/01/14 02:47:26;;;;;;;2.87;2.60;;;-1.20;99.90;;;;;;5033892;28;20207;-75
2022/01/14 02:49:53;;;;;;;0.53;0.53;;;-1.20;99.90;;;;;;5033965;28;20181;-75
2022/01/14 02:52:28;;;;;;;0.97;0.27;;;-1.20;99.90;;;;;;5051330;28;20219;-75
2022/01/14 02:55:14;;;;;;;3.97;2.77;;;-1.20;99.90;;;;;;5051761;28;20271;-75
2022/01/14 02:57:42;;;;;;;3.40;3.23;;;-1.20;99.90;;;;;;5043047;28;20311;-75
2022/01/14 03:00:09;;;;;;;1.80;1.70;;;-1.20;99.90;;;;;;5051551;28;20211;-74
2022/01/14 03:02:36;;;;;;;2.13;2.03;;;-1.20;99.90;;;;;;5050825;28;20240;-75
2022/01/14 03:05:02;;;;;;;1.37;1.37;;;-1.20;99.90;;;;;;5051541;28;20193;-74
2022/01/14 03:07:28;;;;;;;1.20;1.20;;;-1.20;99.90;;;;;;5051426;28;20733;-77
2022/01/14 03:09:54;;;;;;;2.57;2.47;;;-1.30;99.90;;;;;;5051500;28;20181;-75
2022/01/14 03:12:20;;;;;;;0.20;0.20;;;-1.30;99.90;;;;;;5051080;28;20276;-75
2022/01/14 03:14:45;;;;;;;0.40;0.40;;;-1.30;99.90;;;;;;5051328;28;20181;-76
2022/01/14 03:17:12;;;;;;;1.30;1.23;;;-1.30;99.90;;;;;;5033260;28;20614;-76
2022/01/14 03:19:37;;;;;;;1.87;1.77;;;-1.30;99.90;;;;;;5051240;28;20173;-76
2022/01/14 03:22:17;;;;;;;0.30;0.30;;;-1.40;99.90;;;;;;5050943;28;20314;-76
2022/01/14 03:27:08;;;;;;;4.53;2.33;;;-1.50;99.90;;;;;;5051263;28;20255;-75
2022/01/14 03:29:34;;;;;;;1.93;1.83;;;-1.60;99.90;;;;;;5050873;28;20197;-76
2022/01/14 03:32:00;;;;;;;2.10;1.33;;;-1.50;99.90;;;;;;5033002;28;20205;-76
2022/01/14 03:34:26;;;;;;;0.83;0.83;;;-1.60;99.90;;;;;;5051090;28;20189;-76
2022/01/14 03:36:52;;;;;;;1.57;1.40;;;-1.70;99.90;;;;;;5051044;28;20651;-75
2022/01/14 03:39:18;;;;;;;0.53;0.53;;;-1.60;99.90;;;;;;5033234;28;20189;-76
2022/01/14 03:41:44;;;;;;;0.80;0.80;;;-1.60;99.90;;;;;;5050612;28;20180;-75
2022/01/14 03:44:10;;;;;;;1.57;1.57;;;-1.60;99.90;;;;;;5050823;28;20185;-76
2022/01/14 03:46:35;;;;;;;0.27;0.27;;;-1.60;99.90;;;;;;5051165;28;20238;-75
2022/01/14 03:49:01;;;;;;;3.73;1.37;;;-1.70;99.90;;;;;;5050994;28;20243;-75
2022/01/14 03:51:28;;;;;;;4.60;1.93;;;-1.70;99.90;;;;;;5041986;28;20595;-75
2022/01/14 03:53:54;;;;;;;1.33;1.23;;;-1.70;99.90;;;;;;5050909;28;20173;-76
2022/01/14 03:56:21;;;;;;;0.83;0.83;;;-1.80;99.90;;;;;;5045266;28;20235;-75
2022/01/14 03:58:46;;;;;;;0.10;0.10;;;-1.80;99.90;;;;;;5048005;28;20292;-76
2022/01/14 04:01:12;;;;;;;0.97;0.97;;;-1.80;99.90;;;;;;5051195;28;20710;-75
2022/01/14 04:03:40;;;;;;;0.63;0.63;;;-1.80;99.90;;;;;;5051769;28;20761;-75
2022/01/14 04:06:06;;;;;;;0.00;0.00;;;-1.90;99.90;;;;;;5051308;28;20177;-75
2022/01/14 04:08:32;;;;;;;1.30;1.30;;;-2.00;99.90;;;;;;5053231;28;20191;-76
2022/01/14 04:11:00;;;;;;;1.33;1.33;;;-1.90;99.90;;;;;;5055259;28;20187;-76
2022/01/14 04:16:23;;;;;;;0.20;0.20;;;-2.00;99.90;;;;;;5037652;28;20196;-75
2022/01/14 04:18:50;;;;;;;2.30;2.03;;;-2.00;99.90;;;;;;5055149;28;20215;-76
2022/01/14 04:21:15;;;;;;;0.63;0.53;;;-2.00;99.90;;;;;;5036979;28;20215;-76
2022/01/14 04:23:41;;;;;;;1.93;1.40;;;-2.00;99.90;;;;;;5054624;28;20209;-76
2022/01/14 04:26:07;;;;;;;1.70;1.37;;;-2.00;99.90;;;;;;5055000;28;20216;-76
2022/01/14 04:28:36;;;;;;;0.73;0.73;;;-2.00;99.90;;;;;;5054703;28;20212;-75
2022/01/14 04:31:03;;;;;;;0.50;0.50;;;-2.00;99.90;;;;;;5054471;28;20254;-75
2022/01/14 04:33:31;;;;;;;0.10;0.10;;;-2.00;99.90;;;;;;5054393;28;20197;-75
2022/01/14 04:35:58;;;;;;;1.50;1.40;;;-2.00;99.90;;;;;;5054615;28;20188;-75
2022/01/14 04:38:25;;;;;;;0.10;0.10;;;-2.00;99.90;;;;;;5054373;28;20197;-75
2022/01/14 04:40:51;;;;;;;1.80;0.97;;;-2.00;99.90;;;;;;5054488;28;20247;-74
2022/01/14 04:43:19;;;;;;;0.30;0.30;;;-2.00;99.90;;;;;;5054212;28;20197;-74
2022/01/14 04:48:32;;;;;;;0.37;0.37;;;-2.00;99.90;;;;;;5054689;28;20529;-74
2022/01/14 04:50:58;;;;;;;0.00;0.00;;;-2.10;99.90;;;;;;5041176;28;20246;-74
2022/01/14 04:53:24;;;;;;;3.40;2.10;;;-2.10;99.90;;;;;;5054153;28;20210;-74
2022/01/14 04:55:50;;;;;;;2.30;1.50;;;-2.00;99.90;;;;;;5052963;28;20187;-74
2022/01/14 04:58:16;;;;;;;0.47;0.47;;;-2.00;99.90;;;;;;5047716;28;20216;-75
2022/01/14 05:00:41;;;;;;;0.10;0.10;;;-2.00;99.90;;;;;;5047866;28;20209;-74
2022/01/14 05:03:08;;;;;;;1.00;1.00;;;-2.00;99.90;;;;;;5016157;28;20263;-75
2022/01/14 05:05:37;;;;;;;0.50;0.50;;;-2.00;99.90;;;;;;5040659;28;20183;-76
2022/01/14 05:08:05;;;;;;;0.73;0.73;;;-2.10;99.90;;;;;;5054029;28;20175;-76
2022/01/14 05:12:57;;;;;;;0.50;0.50;;;-2.10;99.90;;;;;;5053691;28;20216;-75
2022/01/14 05:15:23;;;;;;;2.30;1.40;;;-2.10;99.90;;;;;;5036078;28;20195;-75
2022/01/14 05:17:50;;;;;;;0.63;0.63;;;-2.10;99.90;;;;;;5053460;28;20287;-75
2022/01/14 05:20:17;;;;;;;2.33;1.40;;;-2.00;99.90;;;;;;5053017;28;20185;-76
2022/01/14 05:22:43;;;;;;;1.00;1.00;;;-2.10;99.90;;;;;;5053516;28;20258;-75
2022/01/14 05:25:10;;;;;;;0.70;0.70;;;-2.00;99.90;;;;;;5053968;28;20189;-74
2022/01/14 05:27:37;;;;;;;0.13;0.13;;;-2.00;99.90;;;;;;5053725;28;20206;-74
2022/01/14 05:30:07;;;;;;;2.60;2.43;;;-2.00;99.90;;;;;;5053706;28;20631;-75
2022/01/14 05:32:33;;;;;;;0.57;0.57;;;-2.00;99.90;;;;;;5052962;28;20201;-74
2022/01/14 05:34:59;;;;;;;0.50;0.30;;;-2.00;99.90;;;;;;5053649;28;20579;-75
2022/01/14 05:37:24;;;;;;;1.37;1.33;;;-2.00;99.90;;;;;;5035475;28;20640;-75
2022/01/14 05:39:50;;;;;;;0.20;0.20;;;-2.00;99.90;;;;;;5053540;28;20207;-75
2022/01/14 05:42:16;;;;;;;2.70;1.80;;;-2.00;99.90;;;;;;5053079;28;20572;-75
2022/01/14 05:44:41;;;;;;;1.90;1.80;;;-2.00;99.90;;;;;;5053430;28;20548;-74
2022/01/14 05:47:07;;;;;;;0.97;0.97;;;-2.00;99.90;;;;;;5050165;28;20189;-75
2022/01/14 05:49:33;;;;;;;3.00;2.80;;;-2.00;99.90;;;;;;5039234;28;20243;-75
2022/01/14 05:51:59;;;;;;;0.23;0.23;;;-2.00;99.90;;;;;;5045015;28;20258;-74
2022/01/14 05:54:24;;;;;;;5.10;2.13;;;-2.10;99.90;;;;;;5033717;28;20189;-76
2022/01/14 05:56:50;;;;;;;1.60;0.83;;;-2.00;99.90;;;;;;5043985;28;20775;-76
2022/01/14 05:59:16;;;;;;;0.10;0.10;;;-2.10;99.90;;;;;;5053075;28;20821;-75
2022/01/14 06:01:43;;;;;;;2.90;1.70;;;-2.10;99.90;;;;;;5051727;28;20185;-75
2022/01/14 06:04:09;;;;;;;0.43;0.40;;;-2.10;99.90;;;;;;5030612;28;21894;-75
2022/01/14 06:06:35;;;;;;;1.27;1.17;;;-2.10;99.90;;;;;;5044315;28;20188;-75
2022/01/14 06:09:02;;;;;;;0.87;0.87;;;-2.10;99.90;;;;;;5051386;28;20215;-75
2022/01/14 06:11:27;;;;;;;0.10;0.10;;;-2.10;99.90;;;;;;5052273;28;20181;-74
2022/01/14 06:13:53;;;;;;;1.00;1.00;;;-2.10;99.90;;;;;;5052586;28;20235;-75
2022/01/14 06:16:19;;;;;;;0.53;0.53;;;-2.10;99.90;;;;;;5052143;28;20177;-75
2022/01/14 06:18:46;;;;;;;2.37;0.60;;;-2.10;99.90;;;;;;5052662;28;20668;-75
2022/01/14 06:21:12;;;;;;;0.10;0.10;;;-2.10;99.90;;;;;;5038980;28;20679;-75
2022/01/14 06:23:38;;;;;;;2.73;2.53;;;-2.10;99.90;;;;;;5052043;28;20205;-75
2022/01/14 06:26:04;;;;;;;1.50;1.50;;;-2.10;99.90;;;;;;5052517;28;20714;-75
2022/01/14 06:28:30;;;;;;;3.90;1.27;;;-2.20;99.90;;;;;;5052315;28;20188;-75
2022/01/14 06:30:55;;;;;;;1.27;1.27;;;-2.20;99.90;;;;;;5051875;28;20200;-76
2022/01/14 06:33:21;;;;;;;1.73;0.77;;;-2.20;99.90;;;;;;5051953;28;20254;-75
2022/01/14 06:35:46;;;;;;;1.97;1.67;;;-2.20;99.90;;;;;;5052036;28;20177;-74
2022/01/14 06:38:12;;;;;;;0.67;0.67;;;-2.10;99.90;;;;;;5052198;28;20201;-75
2022/01/14 06:40:38;;;;;;;2.60;1.77;;;-2.20;99.90;;;;;;5052177;28;20189;-75
2022/01/14 06:43:05;;;;;;;0.77;0.77;;;-2.20;99.90;;;;;;5033948;28;20553;-75
2022/01/14 06:45:31;;;;;;;3.63;1.13;;;-2.20;99.90;;;;;;5051924;28;20188;-75
2022/01/14 06:47:57;;;;;;;0.53;0.53;;;-2.20;99.90;;;;;;5052023;28;20189;-76
2022/01/14 06:50:23;;;;;;;2.20;2.00;;;-2.20;99.90;;;;;;5051986;28;20192;-75
2022/01/14 06:52:49;;;;;;;0.63;0.63;;;-2.20;99.90;;;;;;5051519;28;20201;-75
2022/01/14 06:55:15;;;;;;;0.93;0.90;;;-2.20;99.90;;;;;;5051768;28;20606;-75
2022/01/14 06:57:40;;;;;;;0.83;0.83;;;-2.20;99.90;;;;;;5043402;28;20291;-75
2022/01/14 07:00:09;;;;;;;2.07;1.90;;;-2.20;99.90;;;;;;5034112;28;20674;-75
2022/01/14 07:02:35;;;;;;;1.13;1.13;;;-2.20;99.90;;;;;;5046746;23;20220;-75
2022/01/14 07:05:00;;;;;;;1.73;1.63;;;-2.30;99.90;;;;;;5050199;28;20239;-75
2022/01/14 07:07:26;;;;;;;0.97;0.50;;;-2.30;99.90;;;;;;5051237;28;20256;-76
2022/01/14 07:09:58;;;;;;;2.90;1.60;;;-2.20;99.90;;;;;;5050192;28;20181;-75
2022/01/14 07:12:38;;;;;;;1.73;1.63;;;-2.20;99.90;;;;;;5047321;28;20700;-76
2022/01/14 07:15:08;;;;;;;2.17;2.07;;;-2.30;99.90;;;;;;5031489;28;20227;-75
2022/01/14 07:17:34;;;;;;;0.20;0.20;;;-2.30;99.90;;;;;;5030428;28;20689;-75
2022/01/14 07:20:06;;;;;;;0.13;0.13;;;-2.30;99.90;;;;;;5029737;28;20185;-77
2022/01/14 07:22:31;;;;;;;2.00;1.90;;;-2.30;99.90;;;;;;5027338;28;20216;-75
2022/01/14 07:24:58;;;;;;;0.50;0.50;;;-2.30;99.90;;;;;;5028813;28;20263;-77
2022/01/14 07:27:24;;;;;;;1.13;1.07;;;-2.30;99.90;;;;;;5031111;28;20181;-75
2022/01/14 07:29:49;;;;;;;2.20;2.10;;;-2.40;99.90;;;;;;5031076;28;20681;-76
2022/01/14 07:32:15;;;;;;;0.30;0.30;;;-2.40;99.90;;;;;;5030539;28;20193;-75
2022/01/14 07:34:40;;;;;;;0.00;0.00;;;-2.40;99.90;;;;;;5030871;28;20793;-76
2022/01/14 07:37:06;;;;;;;0.93;0.90;;;-2.30;99.90;;;;;;5029309;28;20744;-76
2022/01/14 07:39:32;;;;;;;2.57;2.03;;;-2.30;99.90;;;;;;5029686;28;20193;-75
2022/01/14 07:41:57;;;;;;;1.90;1.80;;;-2.20;99.90;;;;;;5030480;28;20266;-75
2022/01/14 07:44:23;;;;;;;1.70;1.57;;;-2.10;99.90;;;;;;5030472;28;20178;-76
2022/01/14 07:46:49;;;;;;;1.23;1.20;;;-2.10;99.90;;;;;;5029397;28;20263;-76
2022/01/14 07:49:15;;;;;;;0.57;0.57;;;-2.10;99.90;;;;;;5030932;28;20170;-75
2022/01/14 07:51:41;;;;;;;0.10;0.10;;;-2.10;99.90;;;;;;5030938;28;20521;-76
2022/01/14 07:54:07;;;;;;;1.40;1.17;;;-2.00;99.90;;;;;;5030996;28;20285;-75
2022/01/14 07:56:35;;;;;;;0.43;0.43;;;-2.00;99.90;;;;;;5023567;28;20179;-75
2022/01/14 07:59:00;;;;;;;0.43;0.40;;;-1.90;99.90;;;;;;5030610;28;20261;-76
2022/01/14 08:01:27;;;;;;;0.00;0.00;;;-1.80;99.90;;;;;;5030395;28;20612;-76
2022/01/14 08:03:53;;;;;;;0.10;0.10;;;-1.80;99.90;;;;;;5030714;28;20296;-75
2022/01/14 08:06:19;;;;;;;0.60;0.60;;;-1.80;99.90;;;;;;5030929;28;20261;-76
2022/01/14 08:08:44;;;;;;;3.50;1.07;;;-1.70;99.90;;;;;;5030846;28;20174;-76
2022/01/14 08:11:10;;;;;;;0.50;0.50;;;-1.70;99.90;;;;;;5013047;28;20186;-76
2022/01/14 08:13:36;;;;;;;0.10;0.10;;;-1.60;99.90;;;;;;5030442;28;20292;-76
2022/01/14 08:16:01;;;;;;;1.80;1.70;;;-1.50;99.90;;;;;;5030630;28;20170;-76
2022/01/14 08:18:28;;;;;;;3.23;1.57;;;-1.30;99.90;;;;;;5030370;28;20232;-76
2022/01/14 08:20:54;;;;;;;1.80;1.70;;;-1.20;99.90;;;;;;5012853;28;20236;-76
2022/01/14 08:23:19;;;;;;;0.83;0.83;;;-1.10;99.90;;;;;;5017185;28;20205;-76
2022/01/14 08:25:45;;;;;;;2.33;2.13;;;-1.10;99.90;;;;;;5030732;28;20657;-76
2022/01/14 08:28:11;;;;;;;0.23;0.23;;;-1.10;99.90;;;;;;5030809;28;20174;-76
2022/01/14 08:30:36;;;;;;;1.23;1.03;;;-1.00;99.90;;;;;;5031071;28;20174;-75
2022/01/14 08:33:03;;;;;;;1.77;1.70;;;-0.90;99.90;;;;;;5030603;28;20391;-76
2022/01/14 08:35:29;;;;;;;6.10;5.30;;;-0.80;99.90;;;;;;5012741;28;20178;-76
2022/01/14 08:37:55;;;;;;;2.50;2.43;;;-0.80;99.90;;;;;;5012687;28;20292;-76
2022/01/14 08:40:21;;;;;;;0.73;0.73;;;-0.60;99.90;;;;;;5030595;28;20792;-77
2022/01/14 08:42:52;;;;;;;0.17;0.17;;;-0.50;99.90;;;;;;5012619;28;20580;-74
2022/01/14 08:45:18;;;;;;;2.57;2.37;;;-0.40;99.90;;;;;;5030742;28;20193;-76
2022/01/14 08:47:44;;;;;;;0.40;0.40;;;-0.30;99.90;;;;;;5012666;28;20182;-76
2022/01/14 08:50:09;;;;;;;0.93;0.93;;;-0.30;99.90;;;;;;5017308;28;20264;-76
2022/01/14 08:52:35;;;;;;;1.53;1.53;;;-0.20;99.90;;;;;;5017002;28;20263;-75
2022/01/14 08:55:00;;;;;;;1.17;1.17;;;-0.10;99.90;;;;;;5032916;28;20289;-75
2022/01/14 08:57:26;;;;;;;0.70;0.70;;;-0.10;99.90;;;;;;5033977;28;20617;-74
2022/01/14 08:59:51;;;;;;;4.07;2.30;;;0.00;99.90;;;;;;5033668;28;20174;-76
2022/01/14 09:02:17;;;;;;;3.03;1.70;;;0.00;99.90;;;;;;5033638;28;20225;-77
2022/01/14 09:04:43;;;;;;;5.23;2.10;;;0.10;99.90;;;;;;5033896;28;20261;-75
2022/01/14 09:07:08;;;;;;;1.43;0.90;;;0.20;99.90;;;;;;5016060;28;20208;-75
2022/01/14 09:09:34;;;;;;;1.83;1.77;;;0.20;99.90;;;;;;5033864;28;20548;-76
2022/01/14 09:12:00;;;;;;;1.23;1.23;;;0.40;99.90;;;;;;5033552;28;20604;-74
2022/01/14 09:14:26;;;;;;;1.10;1.10;;;0.50;99.90;;;;;;5015739;28;20188;-74
2022/01/14 09:16:51;;;;;;;1.90;1.80;;;0.70;99.90;;;;;;5033639;28;20181;-74
2022/01/14 09:19:17;;;;;;;4.03;3.03;;;0.70;99.90;;;;;;5034071;28;20182;-75
2022/01/14 09:21:44;;;;;;;2.20;2.10;;;0.90;99.90;;;;;;5034172;28;20178;-76
2022/01/14 09:24:10;;;;;;;3.50;2.33;;;1.00;99.90;;;;;;5036308;28;20194;-75
2022/01/14 09:26:37;;;;;;;1.10;1.10;;;1.10;99.90;;;;;;5035800;28;20170;-75
2022/01/14 09:29:04;;;;;;;2.33;2.23;;;1.30;99.90;;;;;;5033361;28;20196;-75
2022/01/14 09:31:30;;;;;;;1.53;1.43;;;1.40;99.90;;;;;;5020119;28;20779;-75
2022/01/14 09:33:56;;;;;;;1.07;0.83;;;1.40;99.90;;;;;;5033268;28;20289;-75
2022/01/14 09:36:23;;;;;;;10.27;3.57;;;1.50;99.90;;;;;;5033387;28;20182;-75
2022/01/14 09:38:48;;;;;;;2.10;2.00;;;1.50;99.90;;;;;;5033003;28;20205;-76
2022/01/14 09:41:17;;;;;;;4.43;3.23;;;1.50;99.90;;;;;;5033061;28;20194;-75
2022/01/14 09:43:43;;;;;;;4.23;3.00;;;1.50;99.90;;;;;;5033034;28;20209;-75
2022/01/14 09:46:10;;;;;;;0.77;0.77;;;1.50;99.90;;;;;;5033083;28;20185;-76
2022/01/14 09:48:37;;;;;;;3.47;1.97;;;1.60;99.90;;;;;;5032704;28;20186;-76
2022/01/14 09:51:03;;;;;;;0.73;0.73;;;1.60;99.90;;;;;;5033140;28;20187;-76
2022/01/14 09:53:30;;;;;;;12.63;4.47;;;1.70;99.90;;;;;;5014829;28;20202;-75
2022/01/14 09:55:57;;;;;;;12.40;7.93;;;1.70;99.90;;;;;;5012713;28;20192;-76
2022/01/14 09:58:23;;;;;;;4.83;1.50;;;1.70;99.90;;;;;;5015019;28;20734;-75
2022/01/14 10:00:50;;;;;;;3.70;2.87;;;1.70;99.90;;;;;;5032759;28;20710;-76
2022/01/14 10:03:21;;;;;;;3.53;3.10;;;1.70;99.90;;;;;;5032127;28;20244;-76
2022/01/14 10:05:51;;;;;;;1.53;1.47;;;1.80;99.90;;;;;;5032193;28;20174;-75
2022/01/14 10:08:21;;;;;;;0.90;0.90;;;1.80;99.90;;;;;;5032728;28;20185;-76
2022/01/14 10:10:57;;;;;;;3.17;2.97;;;2.00;99.90;;;;;;5032571;28;20265;-76
2022/01/14 10:13:34;;;;;;;0.40;0.40;;;2.00;99.90;;;;;;5032477;28;20215;-76
2022/01/14 10:16:03;;;;;;;1.27;1.27;;;2.10;99.90;;;;;;5033237;28;20195;-77
2022/01/14 10:18:30;;;;;;;1.70;1.63;;;2.20;99.90;;;;;;5032569;28;20683;-76
2022/01/14 10:21:06;;;;;;;3.33;3.10;;;2.30;99.90;;;;;;5032242;28;20174;-76
2022/01/14 10:23:43;;;;;;;1.30;1.20;;;2.40;99.90;;;;;;5014614;28;20233;-77
2022/01/14 10:26:10;;;;;;;2.23;1.73;;;2.50;99.90;;;;;;5032462;28;20591;-77
2022/01/14 10:28:36;;;;;;;3.70;3.40;;;2.70;99.90;;;;;;5014480;28;20187;-77
2022/01/14 10:31:04;;;;;;;2.60;2.40;;;2.80;99.90;;;;;;5014392;28;20191;-77
2022/01/14 10:33:30;;;;;;;6.50;3.00;;;2.90;99.90;;;;;;5032227;28;20202;-77
2022/01/14 10:35:56;;;;;;;3.40;3.13;;;3.10;99.90;;;;;;5031937;28;20193;-77
2022/01/14 10:38:24;;;;;;;1.67;1.63;;;3.20;99.90;;;;;;5031856;28;20290;-77
2022/01/14 10:40:53;;;;;;;2.70;2.60;;;3.40;99.90;;;;;;5031839;28;20184;-75
2022/01/14 10:43:24;;;;;;;1.43;1.13;;;3.50;99.90;;;;;;5031573;28;20190;-76
2022/01/14 10:45:50;;;;;;;5.07;3.60;;;3.50;99.90;;;;;;5014105;28;20193;-77
2022/01/14 10:48:18;;;;;;;3.43;2.37;;;3.40;99.90;;;;;;5031746;28;20181;-77
2022/01/14 10:50:45;;;;;;;3.13;2.63;;;3.60;99.90;;;;;;5014206;28;20191;-76
2022/01/14 10:53:12;;;;;;;5.37;4.97;;;3.90;99.90;;;;;;5031568;28;20216;-77
2022/01/14 10:55:41;;;;;;;3.27;3.03;;;4.30;99.90;;;;;;5014044;28;20181;-79
2022/01/14 10:58:25;;;;;;;3.90;3.63;;;4.30;99.90;;;;;;5006423;28;20630;-78
2022/01/14 11:01:05;;;;;;;4.40;4.13;;;3.90;99.90;;;;;;5013921;28;20204;-77
2022/01/14 11:03:46;;;;;;;2.17;2.10;;;3.70;99.90;;;;;;5031055;28;20289;-78
2022/01/14 11:06:31;;;;;;;4.00;3.20;;;3.70;99.90;;;;;;5013913;28;20673;-79
2022/01/14 11:09:18;;;;;;;10.30;4.80;;;3.30;99.90;;;;;;5013583;28;20185;-77
2022/01/14 11:11:46;;;;;;;4.90;4.60;;;3.00;99.90;;;;;;5031197;28;20212;-79
2022/01/14 11:14:14;;;;;;;2.60;2.40;;;3.10;99.90;;;;;;5031392;28;20204;-78
2022/01/14 11:16:40;;;;;;;14.57;4.50;;;3.40;99.90;;;;;;5027948;28;20178;-78
2022/01/14 11:19:08;;;;;;;2.73;2.63;;;3.70;99.90;;;;;;5012274;28;20255;-78
2022/01/14 11:24:25;;;;;;;7.30;2.57;;;3.40;99.90;;;;;;5031510;28;20686;-78
2022/01/14 11:26:55;;;;;;;7.40;6.77;;;3.20;99.90;;;;;;5030592;28;20269;-76
2022/01/14 11:29:22;;;;;;;6.87;4.47;;;3.20;99.90;;;;;;5030986;28;20604;-78
2022/01/14 11:32:02;;;;;;;4.40;3.60;;;3.20;99.90;;;;;;5013585;28;20524;-78
2022/01/14 11:34:42;;;;;;;7.90;5.90;;;3.20;99.90;;;;;;5031081;28;20192;-77
2022/01/14 11:37:32;;;;;;;2.83;2.63;;;3.20;99.90;;;;;;5030539;28;20205;-77
2022/01/14 11:40:04;;;;;;;4.90;3.63;;;3.30;99.90;;;;;;5031527;28;20243;-76
2022/01/14 11:42:48;;;;;;;7.37;6.07;;;3.50;99.90;;;;;;5034645;28;20193;-81
2022/01/14 11:45:41;;;;;;;5.33;4.90;;;3.50;99.90;;;;;;5012805;28;20189;-81
2022/01/14 11:48:07;;;;;;;4.00;3.63;;;3.40;99.90;;;;;;5021231;28;20185;-78
2022/01/14 11:50:32;;;;;;;5.00;4.60;;;3.30;99.90;;;;;;5035256;28;20216;-78
2022/01/14 11:52:59;;;;;;;12.83;5.37;;;3.40;99.90;;;;;;5013714;28;20232;-78
2022/01/14 11:55:29;;;;;;;13.43;5.97;;;3.20;99.90;;;;;;5031858;28;20607;-78
2022/01/14 11:58:00;;;;;;;5.90;5.37;;;3.30;99.90;;;;;;5023390;28;20755;-79
2022/01/14 12:00:30;;;;;;;9.03;7.97;;;3.20;99.90;;;;;;5031624;28;20204;-78
2022/01/14 12:02:58;;;;;;;6.07;5.67;;;3.20;99.90;;;;;;5031509;28;20216;-78
2022/01/14 12:05:26;;;;;;;23.47;6.37;;;3.20;99.90;;;;;;5016970;28;20178;-78
2022/01/14 12:08:12;;;;;;;8.03;4.60;;;3.20;99.90;;;;;;5013922;28;20620;-79
2022/01/14 12:10:43;;;;;;;7.97;7.07;;;3.40;99.90;;;;;;5031672;28;20178;-79
2022/01/14 12:13:37;;;;;;;3.20;2.90;;;3.50;99.90;;;;;;4999767;28;20213;-78
2022/01/14 12:16:05;;;;;;;3.67;2.83;;;3.50;99.90;;;;;;5031228;28;20174;-78
2022/01/14 12:18:45;;;;;;;9.07;5.57;;;3.60;99.90;;;;;;5031281;28;20262;-78
2022/01/14 12:21:12;;;;;;;7.03;3.50;;;3.60;99.90;;;;;;5031379;28;20165;-78
2022/01/14 12:23:39;;;;;;;6.23;5.77;;;3.70;99.90;;;;;;5014368;28;20209;-77
2022/01/14 12:26:20;;;;;;;7.70;5.93;;;3.80;99.90;;;;;;5031763;28;20261;-77
2022/01/14 12:29:06;;;;;;;8.27;4.80;;;3.80;99.90;;;;;;5021016;28;20653;-77
2022/01/14 12:32:00;;;;;;;9.37;8.30;;;3.80;99.90;;;;;;5003136;28;20271;-76
2022/01/14 12:34:26;;;;;;;7.13;6.50;;;3.70;99.90;;;;;;5021092;28;20186;-77
2022/01/14 12:36:52;;;;;;;14.47;6.77;;;3.80;99.90;;;;;;5034559;28;20185;-77
2022/01/14 12:39:18;;;;;;;16.90;10.53;;;3.70;99.90;;;;;;5021396;28;20192;-76
2022/01/14 12:41:44;;;;;;;3.70;3.43;;;3.70;99.90;;;;;;5034260;28;20346;-77
2022/01/14 12:44:10;;;;;;;10.87;4.80;;;3.70;99.90;;;;;;5034256;28;20629;-78
2022/01/14 12:46:40;;;;;;;6.53;5.90;;;3.80;99.90;;;;;;5034266;28;20235;-76
2022/01/14 12:49:21;;;;;;;11.00;6.83;;;3.90;99.90;;;;;;4998467;28;20178;-76
2022/01/14 12:52:02;;;;;;;3.63;3.43;;;4.00;99.90;;;;;;5009708;28;20190;-77
2022/01/14 12:54:32;;;;;;;6.80;6.20;;;4.00;99.90;;;;;;5025456;28;20182;-78
2022/01/14 12:56:58;;;;;;;7.00;4.30;;;4.10;99.90;;;;;;5024720;28;20177;-77
2022/01/14 12:59:24;;;;;;;6.00;5.50;;;3.90;99.90;;;;;;5034240;28;20252;-78
2022/01/14 13:01:52;;;;;;;5.50;4.27;;;3.80;99.90;;;;;;5033657;28;20209;-77
2022/01/14 13:04:19;;;;;;;5.60;3.10;;;3.90;99.90;;;;;;5025846;28;20214;-78
2022/01/14 13:06:57;;;;;;;7.47;4.93;;;3.90;99.90;;;;;;4999388;28;20200;-78
2022/01/14 13:09:29;;;;;;;14.93;4.93;;;4.00;99.90;;;;;;5016167;28;20177;-78
2022/01/14 13:12:10;;;;;;;11.63;7.27;;;4.00;99.90;;;;;;5033309;28;20232;-78
2022/01/14 13:14:47;;;;;;;6.03;3.60;;;4.00;99.90;;;;;;5016247;28;20312;-78
2022/01/14 13:17:23;;;;;;;7.27;6.60;;;3.90;99.90;;;;;;5015594;28;20266;-76
2022/01/14 13:19:49;;;;;;;5.00;4.63;;;3.90;99.90;;;;;;5020578;28;20174;-77
2022/01/14 13:22:18;;;;;;;4.73;4.20;;;4.00;99.90;;;;;;5030792;28;20208;-76